Date,TemperatureHighF,TemperatureAvgF,TemperatureLowF,DewpointHighF,DewpointAvgF,DewpointLowF,HumidityHigh,HumidityAvg,HumidityLow,PressureMaxIn,PressureMinIn,WindSpeedMaxMPH,WindSpeedAvgMPH,GustSpeedMaxMPH,PrecipitationSumIn
2013-1-1,35,22,3,18,-8,-26,62,27,10,29.98,29.68,24,3,30,0.12
2013-1-2,19,8,-5,2,-11,-24,53,40,30,30.27,29.89,11,2,19,0.00
2013-1-3,12,2,-12,-10,-20,-31,46,31,10,30.29,29.94,4,0,12,0.00
2013-1-4,35,24,-15,13,2,-29,57,40,21,29.94,29.77,100,8,100,0.00
2013-1-5,17,-10,-15,0,-24,-29,50,41,36,30.25,29.85,100,82,100,0.00
2013-1-6,37,28,12,13,9,-5,55,43,31,30.18,29.89,7,0,13,0.00
2013-1-7,38,26,16,12,1,-16,50,36,11,30.39,29.89,11,1,14,0.00
2013-1-8,39,29,18,10,4,-1,55,37,18,30.37,30.21,10,1,17,0.00
2013-1-9,44,30,20,35,9,-8,83,45,10,30.37,29.92,14,2,47,2.23
2013-1-10,46,40,33,19,2,-9,46,20,11,30.50,30.03,15,0,21,0.00
2013-1-11,40,31,20,27,13,-1,75,50,17,30.50,30.09,6,0,2,2.27
2013-1-12,44,39,33,38,34,26,94,82,70,30.13,30.05,8,1,14,0.02
2013-1-13,44,41,38,44,40,37,99,98,94,30.10,29.89,10,2,16,0.00
2013-1-14,51,43,34,44,23,-2,99,55,11,30.28,29.79,14,2,25,0.00
2013-1-20,41,28,16,16,-10,-27,45,18,10,29.99,29.54,21,2,36,0.05
2013-1-21,26,16,10,5,-15,-30,60,27,10,30.07,29.82,0,0,9,0.00
2013-1-22,29,11,4,-1,-15,-33,58,33,10,30.09,29.81,17,0,26,0.41
2013-1-23,13,0,-9,-19,-30,-39,37,21,10,30.22,30.08,0,0,11,0.00
2013-1-24,19,1,-15,-21,-29,-39,41,22,10,30.37,30.18,0,0,1,0.00
2013-1-25,18,6,-5,-9,-26,-37,42,19,10,30.42,30.11,0,0,1,0.00
2013-1-26,21,10,2,-5,-17,-30,53,28,10,30.32,30.10,0,0,1,0.00
2013-1-27,28,12,-2,-11,-18,-26,48,26,10,30.52,30.31,0,0,2,0.00
2013-1-28,23,16,6,14,1,-13,68,52,24,30.48,29.98,0,0,0,0.00
2013-1-29,34,28,22,28,18,12,80,66,43,30.17,29.97,7,0,11,0.01
2013-1-30,55,45,34,51,40,28,90,83,75,29.97,29.26,13,2,21,0.35
2013-1-31,54,40,24,52,17,-15,96,47,10,29.57,28.81,25,2,37,0.60
2013-2-1,28,21,14,3,-10,-21,48,24,10,30.12,29.57,16,0,24,0.04
2013-2-2,22,16,8,7,-4,-16,63,42,18,30.19,30.02,0,0,4,0.00
2013-2-3,35,20,8,6,-6,-22,62,36,10,30.04,29.76,0,0,0,0.00
2013-2-4,56,21,6,2,-12,-30,50,24,10,29.94,29.74,21,0,30,0.25
2013-2-5,60,33,-7,9,-4,-24,46,23,12,30.04,29.94,0,0,0,0.00
2013-2-6,59,36,2,6,-6,-31,44,17,10,30.39,29.92,0,0,0,0.00
2013-2-7,56,15,-3,9,-14,-27,44,25,11,30.60,30.39,0,0,0,0.00
2013-2-8,24,19,12,3,0,-11,53,43,32,30.43,30.20,0,0,0,4.29
2013-2-9,23,23,23,3,3,3,42,42,42,30.20,30.20,0,0,0,0.00
2013-2-10,23,23,23,3,3,3,42,42,42,30.20,30.20,0,0,0,0.00
2013-2-11,23,23,23,3,3,3,42,42,42,30.20,30.20,0,0,0,0.00
2013-2-12,23,23,23,3,3,3,42,42,42,30.20,30.20,0,0,0,0.00
2013-2-26,23,23,23,3,3,3,42,42,42,30.20,30.20,0,0,0,0.00
2013-2-27,23,23,23,3,3,3,42,42,42,30.20,30.20,0,0,0,0.00
2013-2-28,23,23,23,3,3,3,42,42,42,30.20,30.20,0,0,0,0.00
2013-3-1,31,23,23,23,5,3,72,44,42,30.20,29.75,0,0,0,0.00
2013-3-2,34,33,27,24,21,19,81,62,54,29.76,29.74,0,0,0,4.32
2013-3-3,34,34,34,19,19,19,54,54,54,29.76,29.76,0,0,0,0.00
2013-3-4,34,34,34,19,19,19,54,54,54,29.76,29.76,0,0,0,0.00
2013-3-5,34,34,34,19,19,19,54,54,54,29.76,29.76,0,0,0,0.00
2013-3-6,34,34,34,19,19,19,54,54,54,29.76,29.76,0,0,0,0.00
2013-3-7,50,35,29,19,11,-4,58,40,11,30.19,29.76,0,0,0,0.00
2013-3-8,59,35,19,21,12,-10,75,46,10,30.33,30.13,97,1,0,4.32
2013-3-9,79,37,15,22,9,-10,72,40,11,30.36,30.26,0,0,0,0.00
2013-3-10,71,41,17,15,4,-8,67,29,10,30.34,30.12,0,0,0,0.00
2013-3-11,52,44,36,16,11,-2,42,27,11,30.18,29.95,0,0,0,4.32
2013-3-12,45,43,43,33,31,15,66,62,32,29.97,29.90,0,0,0,0.00
2013-3-13,43,43,43,33,33,33,66,66,66,29.90,29.90,0,0,0,0.00
2013-3-14,43,35,19,33,14,-5,66,43,31,29.93,29.77,0,0,0,0.00
2013-3-15,56,25,6,26,2,-14,75,43,10,29.94,29.58,0,0,0,0.00
2013-3-16,45,26,6,16,-2,-10,63,36,10,29.94,29.75,0,0,0,0.00
2013-3-17,60,25,5,15,-4,-24,58,32,11,30.36,29.92,6,0,0,4.32
2013-3-18,66,28,1,8,-8,-21,51,25,10,30.45,30.11,0,0,0,0.00
2013-3-19,32,31,27,27,20,7,80,66,34,30.11,29.72,24,2,1,5.83
2013-3-20,32,32,29,28,27,23,83,82,78,29.72,29.69,0,0,0,0.00
2013-3-21,33,31,20,28,24,9,83,75,61,29.75,29.69,0,0,0,0.00
2013-3-22,33,33,33,27,27,27,76,76,76,29.72,29.72,0,0,0,0.00
2013-3-23,38,34,18,27,12,-1,76,43,28,29.74,29.70,0,0,0,4.32
2013-3-24,38,36,17,14,9,5,65,34,29,29.84,29.71,0,0,0,0.00
2013-3-25,70,38,18,22,10,-4,65,38,10,29.82,29.56,0,0,0,0.00
2013-3-26,78,43,20,21,11,-9,63,33,10,29.82,29.61,0,0,0,0.00
2013-3-27,92,46,26,30,11,-4,55,28,10,29.93,29.78,0,0,0,0.00
2013-3-28,89,46,25,43,22,1,69,45,12,30.07,29.92,0,0,0,0.00
2013-3-29,80,43,27,41,21,3,76,49,10,30.08,30.00,0,0,0,0.00
2013-3-30,92,46,18,32,14,-14,66,36,10,30.11,30.01,0,0,0,0.00
2013-3-31,72,44,16,34,8,-6,76,31,10,30.10,29.71,97,1,0,0.95
2013-4-1,66,40,24,34,16,-17,76,47,10,29.82,29.51,97,3,0,0.00
2013-4-2,66,34,17,19,-4,-20,35,19,10,29.93,29.80,1,0,0,0.00
2013-4-3,72,40,20,24,-2,-16,66,20,10,30.21,29.93,0,0,0,4.32
2013-4-4,77,43,12,18,3,-13,57,23,10,30.28,29.92,0,0,1,4.32
2013-4-5,89,45,26,36,6,-8,35,21,10,29.98,29.74,0,0,0,0.00
2013-4-6,105,42,15,40,-1,-26,38,18,10,30.30,29.98,0,0,0,0.00
2013-4-7,86,49,19,26,3,-16,36,16,10,30.25,29.80,0,0,0,0.00
2013-4-8,95,56,35,34,17,-4,49,25,10,30.11,29.89,0,0,24,0.00
2013-4-9,100,52,38,73,28,-7,71,47,11,30.03,29.81,49,0,97,0.00
2013-4-10,43,43,43,40,39,9,89,87,24,29.98,29.92,0,0,55,0.00
2013-4-11,51,40,33,40,12,-13,89,41,10,30.18,29.92,0,0,0,0.00
2013-4-12,33,32,25,22,16,1,64,52,25,30.18,29.92,0,0,24,0.00
2013-4-13,32,32,32,22,22,22,64,64,64,29.93,29.93,0,0,0,0.00
2013-4-14,78,37,21,65,19,0,64,52,11,30.23,29.93,0,0,0,0.00
2013-4-15,70,46,17,30,11,-1,65,30,10,30.35,30.18,0,0,3,0.00
2013-4-16,67,54,47,67,28,-1,99,46,10,30.24,29.93,97,3,50,0.05
2013-4-17,54,54,54,42,42,42,65,65,65,29.97,29.97,0,0,50,0.00
2013-4-18,57,46,26,51,24,13,99,44,17,30.36,29.97,0,0,50,0.05
2013-4-19,55,55,55,26,26,26,33,33,33,30.21,30.21,0,0,0,0.00
2013-4-20,70,50,13,64,21,-28,99,39,11,30.21,29.74,0,0,24,0.07
2013-4-21,84,50,21,26,12,2,47,25,12,30.69,30.15,61,1,0,0.07
2013-4-22,76,55,18,34,20,0,54,29,16,30.72,30.63,0,0,0,0.07
2013-4-23,76,74,31,29,29,16,53,19,18,30.63,30.15,0,0,0,0.00
2013-4-24,94,56,-10,43,25,12,64,36,13,30.15,29.63,0,0,0,0.07
2013-4-25,116,75,35,55,36,9,64,31,14,30.15,29.63,53,16,0,14.64
2013-4-26,116,116,116,55,55,55,14,14,14,30.11,30.11,53,53,0,0.00
2013-4-27,116,86,58,55,33,8,20,16,13,30.41,30.11,97,41,97,1.33
2013-4-28,59,59,59,16,16,16,18,18,18,30.26,30.26,1,1,2,0.00
2013-5-2,59,59,59,16,16,16,18,18,18,30.26,30.26,1,1,2,0.00
2013-5-3,59,59,59,16,16,16,18,18,18,30.26,30.26,1,1,2,0.00
2013-5-4,59,59,59,16,16,16,18,18,18,30.26,30.26,1,1,2,0.00
2013-5-5,59,59,59,16,16,16,18,18,18,30.26,30.26,1,1,2,0.00
2013-5-6,59,59,59,16,16,16,18,18,18,30.26,30.26,1,1,2,0.00
2013-5-7,59,59,59,16,16,16,18,18,18,30.26,30.26,1,1,2,0.00
2013-5-8,59,59,59,16,16,16,18,18,18,30.26,30.26,1,1,2,0.00
2013-5-9,78,60,56,53,42,16,78,59,18,30.26,29.82,5,2,9,0.12
2013-5-11,70,65,57,63,56,46,91,74,54,29.68,29.59,10,5,17,0.03
2013-5-12,61,54,44,48,38,22,76,56,22,29.78,29.62,17,5,25,0.00
2013-5-13,53,46,41,31,28,24,63,50,37,30.05,29.78,14,6,22,0.00
2013-5-14,61,48,33,35,30,22,86,54,22,30.10,29.96,5,1,9,0.00
2013-5-15,62,49,32,50,38,28,90,70,28,30.03,29.59,11,3,19,0.06
2013-5-16,79,62,48,49,40,26,90,50,15,29.87,29.60,23,7,34,0.06
2013-5-17,70,57,45,44,40,37,78,56,32,30.21,29.87,9,3,15,0.00
2013-5-18,78,60,38,45,38,30,91,52,18,30.29,30.15,7,1,10,0.00
2013-5-19,68,59,51,55,51,44,92,77,59,30.26,30.10,10,3,20,0.19
2013-5-20,78,66,57,65,59,54,91,80,61,30.11,29.92,94,17,94,0.00
2013-5-21,78,64,57,68,59,55,95,85,66,29.96,29.80,11,3,21,0.27
2013-5-22,81,69,58,70,64,56,95,84,65,29.84,29.71,9,4,19,0.03
2013-5-23,80,71,62,68,64,59,92,78,59,29.76,29.66,11,4,21,0.38
2013-5-24,62,50,44,60,47,41,94,89,81,30.01,29.67,15,7,25,0.28
2013-5-25,45,44,42,42,40,38,92,89,83,29.99,29.89,18,10,28,0.84
2013-5-26,52,46,42,46,41,38,93,84,72,30.09,29.85,13,5,20,0.04
2013-5-27,71,55,39,47,41,36,94,63,28,30.17,30.06,5,2,10,0.02
2013-5-28,75,59,39,49,44,36,91,61,30,30.22,30.06,5,2,9,0.00
2013-5-29,71,63,56,65,58,49,92,85,68,30.08,29.90,6,3,11,0.09
2013-5-30,91,77,62,70,63,57,93,66,34,30.05,29.94,9,4,14,0.00
2013-5-31,93,79,66,71,64,56,87,64,30,30.07,29.85,9,3,17,0.00
2013-6-1,89,78,68,72,67,61,87,69,48,29.92,29.76,14,3,24,0.01
2013-6-2,87,73,65,72,67,61,91,80,57,29.80,29.62,14,3,21,0.16
2013-6-3,74,67,56,63,51,37,89,60,33,29.87,29.76,15,5,20,0.00
2013-6-4,70,60,46,50,44,37,80,56,43,30.11,29.87,11,3,15,0.14
2013-6-5,74,60,46,50,46,43,91,62,36,30.20,30.07,6,2,12,0.00
2013-6-6,70,59,53,54,49,42,91,70,51,30.16,30.05,7,2,14,0.01
2013-6-7,58,55,52,53,52,48,93,89,82,30.06,29.85,4,1,9,0.79
2013-6-8,63,59,54,60,56,52,95,90,78,30.01,29.75,5,2,9,0.04
2013-6-9,81,67,57,61,56,51,95,70,37,30.15,30.00,8,2,12,0.13
2013-6-10,76,63,52,62,57,49,93,82,55,30.19,29.92,5,1,10,0.23
2013-6-11,65,60,58,60,57,56,95,91,77,29.92,29.56,4,1,8,0.57
2013-6-12,70,61,56,57,54,51,95,77,56,29.84,29.59,15,5,25,0.01
2013-6-13,66,59,52,58,54,50,93,84,69,29.82,29.67,5,1,10,0.07
2013-6-14,77,65,55,60,55,50,93,72,44,29.85,29.68,11,3,19,0.01
2013-6-15,80,67,51,51,46,41,78,50,26,29.95,29.84,6,1,11,0.00
2013-6-16,70,63,56,60,53,44,91,71,48,29.91,29.68,7,3,11,0.06
2013-6-17,80,67,57,63,58,53,92,75,47,29.93,29.74,14,2,23,0.00
2013-6-18,71,61,54,55,51,46,87,71,45,29.99,29.90,4,1,8,0.01
2013-6-19,72,60,50,48,43,34,83,54,26,30.17,29.97,10,2,17,0.00
2013-6-20,79,63,43,52,47,40,90,60,35,30.25,30.13,5,2,11,0.00
2013-6-21,85,70,49,60,53,45,89,58,33,30.24,30.15,6,2,9,0.00
2013-6-22,84,69,60,68,61,54,92,77,57,30.18,30.05,8,2,14,0.01
2013-6-23,87,75,66,74,68,64,94,79,61,30.08,29.89,9,3,16,0.12
2013-6-24,91,76,69,73,68,65,88,77,53,29.96,29.85,8,4,15,0.10
2013-6-25,87,74,67,73,68,64,94,83,59,29.91,29.71,15,3,21,0.73
2013-6-26,79,72,69,73,69,66,95,89,74,29.77,29.71,6,2,10,0.21
2013-6-27,89,76,67,72,68,64,94,78,44,29.78,29.65,6,2,10,0.02
2013-6-28,82,70,60,69,64,58,96,83,57,29.67,29.36,9,3,22,0.30
2013-6-29,81,71,62,68,64,60,91,79,57,29.66,29.46,8,2,14,0.01
2013-6-30,87,73,64,70,66,62,93,79,48,29.91,29.65,6,2,11,0.84
2013-7-1,72,64,-4,66,60,-5,94,88,79,30.05,29.91,7,2,24,3.17
2013-7-2,83,69,60,73,65,59,95,88,68,30.12,30.02,4,1,9,0.11
2013-7-3,89,77,68,76,71,67,95,83,59,30.13,30.05,8,2,14,0.00
2013-7-4,92,79,72,77,72,70,94,80,52,30.15,30.02,8,2,17,0.00
2013-7-5,92,79,71,76,72,69,94,81,56,30.11,30.02,7,2,14,0.06
2013-7-22,86,78,70,69,66,62,91,68,51,29.96,29.81,4,1,8,0.03
2013-7-23,84,73,69,72,68,66,95,86,61,29.82,29.52,5,1,8,0.48
2013-7-24,74,67,52,68,59,48,93,76,57,30.03,29.54,9,3,16,0.03
2013-7-25,73,61,50,56,51,47,91,70,50,30.12,30.03,8,2,13,0.00
2013-7-26,76,65,55,61,56,50,88,73,52,30.10,29.98,8,2,14,0.00
2013-7-27,85,70,54,64,59,52,95,71,40,30.04,29.91,4,2,10,0.00
2013-7-28,80,72,65,68,65,61,89,79,62,29.96,29.88,8,2,14,0.02
2013-7-29,85,74,67,68,61,53,94,67,35,30.06,29.92,11,3,14,0.01
2013-7-30,81,70,57,62,57,52,88,65,45,30.12,30.02,4,1,7,0.00
2013-7-31,84,70,58,64,59,55,92,70,47,30.13,29.98,6,2,11,0.00
2013-8-1,79,68,60,66,62,56,92,82,62,30.00,29.80,8,3,16,0.19
2013-8-2,83,72,64,66,59,52,95,68,36,29.82,29.75,14,4,21,0.00
2013-8-3,78,70,61,62,57,52,92,66,41,29.83,29.76,16,4,22,0.15
2013-8-4,78,67,57,62,54,49,89,67,40,29.94,29.79,14,2,25,0.04
2013-8-5,76,65,51,53,47,38,81,56,31,30.04,29.94,10,2,17,0.00
2013-8-6,80,65,49,56,50,46,92,63,35,30.11,30.04,6,2,11,0.00
2013-8-7,81,70,57,64,59,52,86,69,49,30.12,29.98,8,3,16,0.00
2013-8-8,87,76,70,70,66,61,87,73,53,29.99,29.89,8,4,15,0.00
2013-8-9,81,75,72,73,70,67,93,86,69,29.92,29.74,4,1,9,0.05
2013-8-10,81,72,60,66,54,46,80,57,30,30.04,29.78,10,3,14,0.00
2013-8-11,83,69,53,59,53,47,90,61,31,30.08,29.78,7,2,11,0.46
2013-8-12,84,70,55,61,56,48,87,64,38,30.01,29.87,8,2,16,0.00
2013-8-13,75,67,60,66,62,57,93,85,71,29.87,29.65,9,2,16,0.24
2013-8-14,76,64,56,60,51,46,78,63,47,29.95,29.69,14,4,21,0.00
2013-8-15,60,60,60,48,48,48,64,64,64,29.95,29.95,2,2,3,0.00
2013-8-16,83,73,61,60,56,52,87,58,36,30.19,30.07,8,2,11,0.00
2013-8-17,82,66,55,63,57,53,93,74,46,30.29,30.19,4,1,8,0.00
2013-8-18,82,67,54,63,58,52,93,75,51,30.27,30.05,8,2,11,0.00
2013-8-19,88,72,58,63,60,55,94,69,39,30.08,29.91,5,2,10,0.00
2013-8-20,86,69,59,64,60,56,91,75,46,30.08,29.97,6,2,11,0.00
2013-8-21,66,66,66,61,61,61,86,85,85,30.13,30.13,3,2,5,0.00
2013-8-24,87,72,57,64,50,42,78,49,26,30.33,30.05,6,1,11,0.00
2013-8-25,84,66,49,61,54,46,93,68,39,30.37,30.09,8,2,13,0.00
2013-8-26,77,70,63,69,64,60,93,82,70,30.12,29.84,8,3,14,0.00
2013-8-27,86,75,68,72,68,66,96,81,52,29.89,29.82,4,1,8,0.00
2013-8-28,90,74,64,72,67,62,96,80,47,29.92,29.80,5,1,10,0.00
2013-8-29,85,73,62,68,64,60,93,76,49,30.04,29.91,6,1,11,0.00
2013-8-30,87,75,64,70,66,62,95,76,53,29.99,29.74,8,2,14,0.00
2013-8-31,81,73,69,73,69,66,95,89,74,29.79,29.71,6,1,9,0.00
2013-9-1,86,75,69,71,68,66,95,81,56,29.85,29.77,4,1,7,0.00
2013-9-2,84,73,64,72,67,60,95,84,58,29.80,29.63,22,2,30,0.00
2013-9-3,78,69,64,65,61,56,95,77,54,29.80,29.68,14,3,19,0.00
2013-9-4,82,69,61,60,57,53,89,67,40,29.90,29.80,14,3,21,0.00
2013-9-5,69,60,49,60,47,37,94,63,36,30.18,29.86,8,3,16,0.00
2013-9-6,72,57,40,48,43,38,94,64,33,30.26,30.05,8,3,16,0.00
2013-9-7,67,60,53,56,50,46,78,70,60,30.06,29.83,9,4,17,0.00
2013-9-8,66,60,48,56,47,38,91,64,38,30.11,29.76,13,4,22,0.00
2013-9-9,71,56,39,51,44,37,93,69,42,30.21,30.04,11,3,21,0.00
2013-9-10,75,66,57,68,61,50,94,85,74,30.08,29.96,8,3,14,0.00
2013-9-11,94,78,70,78,72,67,95,83,57,30.01,29.84,17,4,27,0.00
2013-9-12,85,74,69,72,68,65,94,82,63,29.90,29.60,11,3,19,0.00
2013-9-13,69,62,55,68,57,49,95,85,76,29.86,29.60,10,4,17,0.00
2013-9-14,65,57,52,52,49,45,85,76,59,30.09,29.85,5,1,10,0.00
2013-9-15,69,58,45,54,48,42,91,73,56,30.15,30.00,10,3,15,0.00
2013-9-16,60,53,41,55,46,35,93,77,53,30.33,30.00,11,3,21,0.00
2013-9-17,66,50,37,44,39,33,90,68,36,30.47,30.31,7,1,9,0.00
2013-9-18,73,56,42,51,46,40,94,72,41,30.33,30.09,7,2,12,0.70
2013-9-19,80,61,46,55,50,44,94,70,33,30.16,29.99,6,2,10,0.00
2013-9-20,63,54,50,57,50,47,92,88,79,30.09,29.90,4,1,8,0.00
2013-9-21,78,67,58,62,57,49,92,73,39,29.92,29.56,17,6,32,0.00
2013-9-22,66,58,47,62,50,41,94,76,57,29.91,29.57,11,3,19,0.00
2013-9-23,58,49,39,43,40,36,89,71,54,30.06,29.90,9,3,17,0.00
2013-9-24,66,53,42,46,42,38,89,69,44,30.05,29.88,5,1,10,0.00
2013-9-25,69,54,39,53,46,37,94,78,53,30.01,29.89,8,2,12,0.00
2013-9-26,65,55,44,51,47,42,95,78,56,30.17,30.01,11,3,17,0.00
2013-9-27,67,57,47,53,50,45,93,78,58,30.30,30.16,4,1,8,0.00
2013-9-28,80,53,41,58,48,40,96,85,39,30.37,29.91,4,1,7,0.00
2013-9-29,79,68,53,58,52,48,87,59,38,30.20,30.03,7,2,12,0.00
2013-9-30,77,60,47,56,50,45,95,72,37,30.09,29.93,6,1,8,0.00
2013-10-1,79,61,44,59,52,42,95,75,47,30.01,29.84,5,1,8,0.00
2013-10-2,82,68,56,62,54,49,90,64,36,29.97,29.80,17,5,24,0.00
2013-10-3,77,62,47,52,48,42,88,63,35,30.10,29.96,5,1,8,0.00
2013-10-4,64,54,45,54,50,43,95,85,69,30.10,30.03,5,1,9,0.00
2013-10-5,58,56,54,49,48,48,78,75,72,30.12,30.10,3,2,5,0.00
2013-10-7,58,58,58,48,48,48,71,71,71,30.11,30.11,2,2,4,0.00